sensor_id;sensor_type;location;lat;lon;timestamp;P1;durP1;ratioP1;P2;durP2;ratioP2
64917;SDS011;52176;44.858;38.372;2023-06-26T05:00:16;1.70;;;0.60;;
64917;SDS011;52176;44.858;38.372;2023-06-26T05:02:43;1.50;;;0.60;;
64917;SDS011;52176;44.858;38.372;2023-06-26T05:05:09;1.23;;;0.55;;
64917;SDS011;52176;44.858;38.372;2023-06-26T05:07:35;1.45;;;0.50;;
64917;SDS011;52176;44.858;38.372;2023-06-26T05:10:02;1.00;;;0.50;;
64917;SDS011;52176;44.858;38.372;2023-06-26T05:12:28;1.13;;;0.50;;
64917;SDS011;52176;44.858;38.372;2023-06-26T05:14:54;1.10;;;0.52;;
64917;SDS011;52176;44.858;38.372;2023-06-26T05:17:20;0.70;;;0.50;;
64917;SDS011;52176;44.858;38.372;2023-06-26T05:19:46;1.23;;;0.60;;
64917;SDS011;52176;44.858;38.372;2023-06-26T05:22:12;1.20;;;0.57;;
64917;SDS011;52176;44.858;38.372;2023-06-26T05:24:39;1.40;;;0.60;;
64917;SDS011;52176;44.858;38.372;2023-06-26T05:27:06;1.08;;;0.50;;
64917;SDS011;52176;44.858;38.372;2023-06-26T05:29:32;1.33;;;0.50;;
64917;SDS011;52176;44.858;38.372;2023-06-26T05:31:59;1.33;;;0.52;;
64917;SDS011;52176;44.858;38.372;2023-06-26T05:34:25;1.13;;;0.60;;
64917;SDS011;52176;44.858;38.372;2023-06-26T05:36:57;1.98;;;0.52;;
64917;SDS011;52176;44.858;38.372;2023-06-26T05:39:24;1.10;;;0.50;;
64917;SDS011;52176;44.858;38.372;2023-06-26T05:41:50;1.63;;;0.50;;
64917;SDS011;52176;44.858;38.372;2023-06-26T05:44:17;1.48;;;0.55;;
64917;SDS011;52176;44.858;38.372;2023-06-26T05:46:43;1.63;;;0.50;;
64917;SDS011;52176;44.858;38.372;2023-06-26T05:49:11;1.58;;;0.50;;
64917;SDS011;52176;44.858;38.372;2023-06-26T05:51:37;1.60;;;0.50;;
64917;SDS011;52176;44.858;38.372;2023-06-26T05:54:03;1.08;;;0.50;;
64917;SDS011;52176;44.858;38.372;2023-06-26T05:56:30;1.65;;;0.50;;
64917;SDS011;52176;44.858;38.372;2023-06-26T05:58:56;1.13;;;0.50;;
64917;SDS011;52176;44.858;38.372;2023-06-26T06:01:23;1.35;;;0.50;;
64917;SDS011;52176;44.858;38.372;2023-06-26T06:03:49;1.13;;;0.50;;
64917;SDS011;52176;44.858;38.372;2023-06-26T06:06:15;2.13;;;0.50;;
64917;SDS011;52176;44.858;38.372;2023-06-26T06:08:42;1.63;;;0.50;;
64917;SDS011;52176;44.858;38.372;2023-06-26T06:11:08;1.25;;;0.50;;
64917;SDS011;52176;44.858;38.372;2023-06-26T06:13:34;1.35;;;0.50;;
64917;SDS011;52176;44.858;38.372;2023-06-26T06:16:00;1.30;;;0.50;;
64917;SDS011;52176;44.858;38.372;2023-06-26T06:18:26;1.33;;;0.50;;
64917;SDS011;52176;44.858;38.372;2023-06-26T06:20:52;1.67;;;0.50;;
64917;SDS011;52176;44.858;38.372;2023-06-26T06:23:18;1.42;;;0.43;;
64917;SDS011;52176;44.858;38.372;2023-06-26T06:25:44;1.13;;;0.40;;
64917;SDS011;52176;44.858;38.372;2023-06-26T06:28:10;1.00;;;0.40;;
64917;SDS011;52176;44.858;38.372;2023-06-26T06:30:36;1.33;;;0.40;;
64917;SDS011;52176;44.858;38.372;2023-06-26T06:33:02;1.23;;;0.40;;
64917;SDS011;52176;44.858;38.372;2023-06-26T06:35:28;1.10;;;0.40;;
64917;SDS011;52176;44.858;38.372;2023-06-26T06:37:54;1.88;;;0.40;;
64917;SDS011;52176;44.858;38.372;2023-06-26T06:40:20;1.15;;;0.50;;
64917;SDS011;52176;44.858;38.372;2023-06-26T06:42:48;1.17;;;0.40;;
64917;SDS011;52176;44.858;38.372;2023-06-26T06:45:17;1.45;;;0.40;;
64917;SDS011;52176;44.858;38.372;2023-06-26T06:47:43;0.98;;;0.40;;
64917;SDS011;52176;44.858;38.372;2023-06-26T06:50:09;1.08;;;0.40;;
64917;SDS011;52176;44.858;38.372;2023-06-26T06:52:38;1.30;;;0.40;;
64917;SDS011;52176;44.858;38.372;2023-06-26T06:55:06;1.00;;;0.40;;
64917;SDS011;52176;44.858;38.372;2023-06-26T06:57:37;1.00;;;0.40;;
64917;SDS011;52176;44.858;38.372;2023-06-26T07:02:30;1.35;;;0.40;;
64917;SDS011;52176;44.858;38.372;2023-06-26T09:09:51;1.20;;;0.40;;
64917;SDS011;52176;44.858;38.372;2023-06-26T09:14:43;0.98;;;0.40;;
64917;SDS011;52176;44.858;38.372;2023-06-26T09:29:39;0.90;;;0.40;;
64917;SDS011;52176;44.858;38.372;2023-06-26T09:32:07;1.83;;;0.40;;
64917;SDS011;52176;44.858;38.372;2023-06-26T09:34:33;0.93;;;0.40;;
64917;SDS011;52176;44.858;38.372;2023-06-26T09:36:59;1.35;;;0.40;;
64917;SDS011;52176;44.858;38.372;2023-06-26T09:39:30;0.93;;;0.40;;
64917;SDS011;52176;44.858;38.372;2023-06-26T09:41:56;1.02;;;0.40;;
64917;SDS011;52176;44.858;38.372;2023-06-26T09:44:23;1.33;;;0.40;;
64917;SDS011;52176;44.858;38.372;2023-06-26T09:46:49;0.85;;;0.40;;
64917;SDS011;52176;44.858;38.372;2023-06-26T09:49:15;1.10;;;0.40;;
64917;SDS011;52176;44.858;38.372;2023-06-26T09:51:41;1.50;;;0.40;;
64917;SDS011;52176;44.858;38.372;2023-06-26T09:54:08;1.45;;;0.40;;
64917;SDS011;52176;44.858;38.372;2023-06-26T09:56:37;1.38;;;0.40;;
64917;SDS011;52176;44.858;38.372;2023-06-26T09:59:03;0.88;;;0.40;;
64917;SDS011;52176;44.858;38.372;2023-06-26T10:01:31;0.98;;;0.40;;
64917;SDS011;52176;44.858;38.372;2023-06-26T10:03:58;0.90;;;0.40;;
64917;SDS011;52176;44.858;38.372;2023-06-26T10:06:28;1.35;;;0.40;;
64917;SDS011;52176;44.858;38.372;2023-06-26T10:09:02;1.30;;;0.40;;
64917;SDS011;52176;44.858;38.372;2023-06-26T10:11:31;1.05;;;0.40;;
64917;SDS011;52176;44.858;38.372;2023-06-26T10:14:03;0.73;;;0.40;;
64917;SDS011;52176;44.858;38.372;2023-06-26T10:16:32;1.55;;;0.40;;
64917;SDS011;52176;44.858;38.372;2023-06-26T10:19:01;1.23;;;0.40;;
64917;SDS011;52176;44.858;38.372;2023-06-26T10:21:30;0.98;;;0.40;;
64917;SDS011;52176;44.858;38.372;2023-06-26T10:23:57;0.60;;;0.40;;
64917;SDS011;52176;44.858;38.372;2023-06-26T10:26:24;0.60;;;0.40;;
64917;SDS011;52176;44.858;38.372;2023-06-26T10:28:52;1.17;;;0.40;;
64917;SDS011;52176;44.858;38.372;2023-06-26T10:31:21;1.50;;;0.40;;
64917;SDS011;52176;44.858;38.372;2023-06-26T10:33:50;1.35;;;0.40;;
64917;SDS011;52176;44.858;38.372;2023-06-26T10:36:20;0.73;;;0.40;;
64917;SDS011;52176;44.858;38.372;2023-06-26T10:38:56;0.80;;;0.40;;
64917;SDS011;52176;44.858;38.372;2023-06-26T10:41:24;1.15;;;0.40;;
64917;SDS011;52176;44.858;38.372;2023-06-26T10:43:51;1.75;;;0.40;;
64917;SDS011;52176;44.858;38.372;2023-06-26T10:49:31;0.88;;;0.40;;
64917;SDS011;52176;44.858;38.372;2023-06-26T10:52:00;0.90;;;0.40;;
64917;SDS011;52176;44.858;38.372;2023-06-26T10:54:30;1.25;;;0.40;;
64917;SDS011;52176;44.858;38.372;2023-06-26T10:56:57;1.10;;;0.40;;
64917;SDS011;52176;44.858;38.372;2023-06-26T10:59:23;0.93;;;0.40;;
64917;SDS011;52176;44.858;38.372;2023-06-26T11:01:54;1.73;;;0.40;;
64917;SDS011;52176;44.858;38.372;2023-06-26T11:07:20;1.05;;;0.40;;
64917;SDS011;52176;44.858;38.372;2023-06-26T11:09:53;1.13;;;0.40;;
64917;SDS011;52176;44.858;38.372;2023-06-26T11:15:08;1.23;;;0.40;;
64917;SDS011;52176;44.858;38.372;2023-06-26T11:17:38;1.10;;;0.50;;
64917;SDS011;52176;44.858;38.372;2023-06-26T11:20:06;0.98;;;0.40;;
64917;SDS011;52176;44.858;38.372;2023-06-26T11:22:36;0.77;;;0.40;;
64917;SDS011;52176;44.858;38.372;2023-06-26T11:25:04;0.73;;;0.40;;
64917;SDS011;52176;44.858;38.372;2023-06-26T11:27:31;0.60;;;0.40;;
64917;SDS011;52176;44.858;38.372;2023-06-26T11:30:04;1.05;;;0.40;;
64917;SDS011;52176;44.858;38.372;2023-06-26T11:32:34;0.47;;;0.32;;
64917;SDS011;52176;44.858;38.372;2023-06-26T11:35:01;1.90;;;0.40;;
64917;SDS011;52176;44.858;38.372;2023-06-26T11:37:30;0.98;;;0.40;;
64917;SDS011;52176;44.858;38.372;2023-06-26T11:39:59;1.55;;;0.40;;
64917;SDS011;52176;44.858;38.372;2023-06-26T11:42:40;1.02;;;0.40;;
64917;SDS011;52176;44.858;38.372;2023-06-26T11:45:07;1.08;;;0.40;;
64917;SDS011;52176;44.858;38.372;2023-06-26T11:47:33;1.90;;;0.47;;
64917;SDS011;52176;44.858;38.372;2023-06-26T11:49:59;1.10;;;0.40;;
64917;SDS011;52176;44.858;38.372;2023-06-26T11:52:32;1.35;;;0.40;;
64917;SDS011;52176;44.858;38.372;2023-06-26T11:54:58;0.60;;;0.40;;
64917;SDS011;52176;44.858;38.372;2023-06-26T13:38:02;0.98;;;0.40;;
64917;SDS011;52176;44.858;38.372;2023-06-26T13:40:28;1.20;;;0.40;;
64917;SDS011;52176;44.858;38.372;2023-06-26T13:42:54;0.60;;;0.32;;
64917;SDS011;52176;44.858;38.372;2023-06-26T13:45:20;0.60;;;0.40;;
64917;SDS011;52176;44.858;38.372;2023-06-26T13:47:46;0.98;;;0.40;;
64917;SDS011;52176;44.858;38.372;2023-06-26T13:50:12;0.93;;;0.40;;
64917;SDS011;52176;44.858;38.372;2023-06-26T13:52:38;0.82;;;0.40;;
64917;SDS011;52176;44.858;38.372;2023-06-26T13:55:04;0.75;;;0.40;;
64917;SDS011;52176;44.858;38.372;2023-06-26T13:57:31;1.00;;;0.40;;
64917;SDS011;52176;44.858;38.372;2023-06-26T14:12:07;0.93;;;0.40;;
64917;SDS011;52176;44.858;38.372;2023-06-26T14:14:33;0.93;;;0.40;;
64917;SDS011;52176;44.858;38.372;2023-06-26T14:36:28;0.95;;;0.40;;
64917;SDS011;52176;44.858;38.372;2023-06-26T14:38:56;0.55;;;0.40;;
64917;SDS011;52176;44.858;38.372;2023-06-26T14:41:22;1.30;;;0.40;;
64917;SDS011;52176;44.858;38.372;2023-06-26T15:12:57;1.20;;;0.50;;
64917;SDS011;52176;44.858;38.372;2023-06-26T15:15:23;0.90;;;0.50;;
64917;SDS011;52176;44.858;38.372;2023-06-26T15:32:25;1.52;;;0.52;;
64917;SDS011;52176;44.858;38.372;2023-06-26T15:37:17;1.30;;;0.50;;
64917;SDS011;52176;44.858;38.372;2023-06-26T15:53:17;0.80;;;0.50;;
64917;SDS011;52176;44.858;38.372;2023-06-26T15:55:44;1.10;;;0.50;;
64917;SDS011;52176;44.858;38.372;2023-06-26T15:58:10;0.95;;;0.40;;
64917;SDS011;52176;44.858;38.372;2023-06-26T16:00:35;1.33;;;0.40;;
64917;SDS011;52176;44.858;38.372;2023-06-26T16:03:02;1.13;;;0.50;;
64917;SDS011;52176;44.858;38.372;2023-06-26T16:05:28;1.10;;;0.40;;
64917;SDS011;52176;44.858;38.372;2023-06-26T16:07:54;1.15;;;0.40;;
64917;SDS011;52176;44.858;38.372;2023-06-26T16:10:20;1.13;;;0.40;;
64917;SDS011;52176;44.858;38.372;2023-06-26T16:12:46;0.75;;;0.40;;
64917;SDS011;52176;44.858;38.372;2023-06-26T16:15:12;1.08;;;0.40;;
64917;SDS011;52176;44.858;38.372;2023-06-26T16:17:38;0.80;;;0.40;;
64917;SDS011;52176;44.858;38.372;2023-06-26T16:20:07;0.70;;;0.40;;
64917;SDS011;52176;44.858;38.372;2023-06-26T16:27:25;0.75;;;0.50;;
64917;SDS011;52176;44.858;38.372;2023-06-26T17:11:12;0.90;;;0.50;;
64917;SDS011;52176;44.858;38.372;2023-06-26T17:13:38;0.60;;;0.40;;
64917;SDS011;52176;44.858;38.372;2023-06-26T17:16:06;1.08;;;0.50;;
64917;SDS011;52176;44.858;38.372;2023-06-26T17:18:32;1.10;;;0.50;;
64917;SDS011;52176;44.858;38.372;2023-06-26T17:20:58;0.75;;;0.50;;
64917;SDS011;52176;44.858;38.372;2023-06-26T17:23:23;1.27;;;0.50;;
64917;SDS011;52176;44.858;38.372;2023-06-26T17:25:49;0.68;;;0.50;;
64917;SDS011;52176;44.858;38.372;2023-06-26T17:28:15;1.08;;;0.50;;
64917;SDS011;52176;44.858;38.372;2023-06-26T17:30:41;0.80;;;0.45;;
64917;SDS011;52176;44.858;38.372;2023-06-26T17:33:09;1.33;;;0.50;;
64917;SDS011;52176;44.858;38.372;2023-06-26T17:35:35;1.27;;;0.50;;
64917;SDS011;52176;44.858;38.372;2023-06-26T17:38:03;0.93;;;0.50;;
64917;SDS011;52176;44.858;38.372;2023-06-26T18:36:27;1.90;;;0.80;;
64917;SDS011;52176;44.858;38.372;2023-06-26T18:38:54;1.33;;;0.70;;
64917;SDS011;52176;44.858;38.372;2023-06-26T18:41:20;1.52;;;0.70;;
64917;SDS011;52176;44.858;38.372;2023-06-26T18:43:46;0.82;;;0.60;;
64917;SDS011;52176;44.858;38.372;2023-06-26T18:46:13;0.90;;;0.60;;
64917;SDS011;52176;44.858;38.372;2023-06-26T18:48:40;1.00;;;0.60;;
64917;SDS011;52176;44.858;38.372;2023-06-26T18:53:51;0.90;;;0.60;;
64917;SDS011;52176;44.858;38.372;2023-06-26T18:56:53;0.70;;;0.50;;
64917;SDS011;52176;44.858;38.372;2023-06-26T18:59:19;1.10;;;0.60;;
64917;SDS011;52176;44.858;38.372;2023-06-26T19:04:49;1.10;;;0.57;;
64917;SDS011;52176;44.858;38.372;2023-06-26T19:07:14;1.00;;;0.70;;
64917;SDS011;52176;44.858;38.372;2023-06-26T19:09:40;3.50;;;2.05;;
64917;SDS011;52176;44.858;38.372;2023-06-26T19:12:06;2.33;;;1.30;;
64917;SDS011;52176;44.858;38.372;2023-06-26T19:14:33;1.70;;;1.10;;
64917;SDS011;52176;44.858;38.372;2023-06-26T19:16:59;1.50;;;0.75;;
64917;SDS011;52176;44.858;38.372;2023-06-26T19:19:25;1.20;;;0.80;;
64917;SDS011;52176;44.858;38.372;2023-06-26T19:21:51;1.20;;;0.80;;
64917;SDS011;52176;44.858;38.372;2023-06-26T19:24:17;1.45;;;0.90;;
64917;SDS011;52176;44.858;38.372;2023-06-26T19:26:43;1.25;;;0.90;;
64917;SDS011;52176;44.858;38.372;2023-06-26T19:29:09;1.67;;;0.80;;
64917;SDS011;52176;44.858;38.372;2023-06-26T19:34:38;1.00;;;0.63;;
64917;SDS011;52176;44.858;38.372;2023-06-26T19:37:04;1.13;;;0.60;;
64917;SDS011;52176;44.858;38.372;2023-06-26T19:39:31;0.82;;;0.60;;
64917;SDS011;52176;44.858;38.372;2023-06-26T19:41:57;1.13;;;0.70;;
64917;SDS011;52176;44.858;38.372;2023-06-26T19:44:23;0.85;;;0.60;;
64917;SDS011;52176;44.858;38.372;2023-06-26T19:46:52;1.65;;;0.60;;
64917;SDS011;52176;44.858;38.372;2023-06-26T19:49:19;1.00;;;0.70;;
64917;SDS011;52176;44.858;38.372;2023-06-26T19:51:45;0.80;;;0.60;;
64917;SDS011;52176;44.858;38.372;2023-06-26T19:54:11;1.02;;;0.70;;
64917;SDS011;52176;44.858;38.372;2023-06-26T19:56:37;0.82;;;0.60;;
64917;SDS011;52176;44.858;38.372;2023-06-26T19:59:03;0.90;;;0.65;;
64917;SDS011;52176;44.858;38.372;2023-06-26T20:01:29;0.88;;;0.65;;
64917;SDS011;52176;44.858;38.372;2023-06-26T20:03:55;1.65;;;0.70;;
64917;SDS011;52176;44.858;38.372;2023-06-26T20:06:21;1.02;;;0.70;;
64917;SDS011;52176;44.858;38.372;2023-06-26T20:08:47;1.15;;;0.80;;
64917;SDS011;52176;44.858;38.372;2023-06-26T20:11:13;0.82;;;0.60;;
64917;SDS011;52176;44.858;38.372;2023-06-26T20:13:39;2.08;;;0.80;;
64917;SDS011;52176;44.858;38.372;2023-06-26T20:16:05;0.93;;;0.70;;
64917;SDS011;52176;44.858;38.372;2023-06-26T20:18:31;0.85;;;0.70;;
64917;SDS011;52176;44.858;38.372;2023-06-26T20:20:57;1.17;;;0.70;;
64917;SDS011;52176;44.858;38.372;2023-06-26T20:23:23;1.17;;;0.70;;
64917;SDS011;52176;44.858;38.372;2023-06-26T20:25:49;1.38;;;0.70;;
64917;SDS011;52176;44.858;38.372;2023-06-26T20:28:15;1.40;;;0.70;;
64917;SDS011;52176;44.858;38.372;2023-06-26T20:30:41;1.15;;;0.70;;
64917;SDS011;52176;44.858;38.372;2023-06-26T20:33:07;1.17;;;0.68;;
64917;SDS011;52176;44.858;38.372;2023-06-26T20:35:33;1.02;;;0.70;;
64917;SDS011;52176;44.858;38.372;2023-06-26T20:37:59;1.00;;;0.60;;
64917;SDS011;52176;44.858;38.372;2023-06-26T20:40:25;1.40;;;0.70;;
64917;SDS011;52176;44.858;38.372;2023-06-26T21:58:17;1.40;;;0.70;;
64917;SDS011;52176;44.858;38.372;2023-06-26T22:00:43;1.15;;;0.70;;
64917;SDS011;52176;44.858;38.372;2023-06-26T22:03:10;1.10;;;0.70;;
64917;SDS011;52176;44.858;38.372;2023-06-26T22:05:37;1.13;;;0.70;;
64917;SDS011;52176;44.858;38.372;2023-06-26T22:08:03;1.42;;;0.70;;
64917;SDS011;52176;44.858;38.372;2023-06-26T22:10:32;1.10;;;0.70;;
64917;SDS011;52176;44.858;38.372;2023-06-26T22:12:59;1.63;;;0.70;;
64917;SDS011;52176;44.858;38.372;2023-06-26T22:15:25;1.05;;;0.70;;
64917;SDS011;52176;44.858;38.372;2023-06-26T22:17:52;1.20;;;0.70;;
64917;SDS011;52176;44.858;38.372;2023-06-26T22:20:21;1.00;;;0.70;;
64917;SDS011;52176;44.858;38.372;2023-06-26T22:22:49;0.90;;;0.70;;
